CheckWX is a tool to help pilots better visualize weather data.  It is not intended as a substitute for an official pre-flight weather briefing.

12:20:31 UTC

KORG METAR
Orange County Airport
Orange, Texas, USA
Current

46 mins ago

KORG 221135Z AUTO 04003KT 1SM BR OVC003 12/12 A3000 RMK AO2 T01150115
Observed
Feb-22 @ 11:35 UTC
Wind
  • 040° at 3 KTS
Visibility
1 SM
Flight Rules
LIFR
Conditions
Mist
Cloud Levels
  • Overcast at 300' AGL
Temperature
12°C / 54°F
Dewpoint
12°C / 54°F
Humidity
100%
Altimeter
30" Hg
Pressure
1015.92 hPa
Previous

1 hour ago

KORG 221115Z AUTO 03003KT 1SM BR OVC003 12/12 A2999 RMK AO2 T01150115
Observed
Feb-22 @ 11:15 UTC
Wind
  • 030° at 3 KTS
Visibility
1 SM
Flight Rules
LIFR
Conditions
Mist
Cloud Levels
  • Overcast at 300' AGL
Temperature
12°C / 54°F
Dewpoint
12°C / 54°F
Humidity
100%
Altimeter
29.99" Hg
Pressure
1015.62 hPa
Previous

1 hour ago

KORG 221055Z AUTO 03004KT 1 1/4SM BR OVC003 12/12 A2998 RMK AO2 T01150115
Observed
Feb-22 @ 10:55 UTC
Wind
  • 030° at 4 KTS
Visibility
1 1/4 SM
Flight Rules
LIFR
Conditions
Mist
Cloud Levels
  • Overcast at 300' AGL
Temperature
12°C / 54°F
Dewpoint
12°C / 54°F
Humidity
100%
Altimeter
29.98" Hg
Pressure
1015.22 hPa